sensor_id;sensor_type;location;lat;lon;timestamp;temperature;humidity
44729;DHT22;30457;53.590;9.922;2022-09-09T00:06:05;19.40;61.00
44729;DHT22;30457;53.590;9.922;2022-09-09T00:10:40;19.40;61.30
44729;DHT22;30457;53.590;9.922;2022-09-09T00:15:07;19.50;61.00
44729;DHT22;30457;53.590;9.922;2022-09-09T00:19:44;19.50;60.60
44729;DHT22;30457;53.590;9.922;2022-09-09T00:24:24;19.50;61.00
44729;DHT22;30457;53.590;9.922;2022-09-09T00:29:08;19.50;61.10
44729;DHT22;30457;53.590;9.922;2022-09-09T00:33:35;19.60;61.10
44729;DHT22;30457;53.590;9.922;2022-09-09T00:38:10;19.60;60.70
44729;DHT22;30457;53.590;9.922;2022-09-09T00:42:41;19.60;60.70
44729;DHT22;30457;53.590;9.922;2022-09-09T00:47:40;19.60;60.20
44729;DHT22;30457;53.590;9.922;2022-09-09T01:01:25;19.70;60.10
44729;DHT22;30457;53.590;9.922;2022-09-09T01:10:52;19.70;60.10
44729;DHT22;30457;53.590;9.922;2022-09-09T01:15:26;19.70;59.90
44729;DHT22;30457;53.590;9.922;2022-09-09T01:20:14;19.70;59.60
44729;DHT22;30457;53.590;9.922;2022-09-09T01:25:22;19.70;59.80
44729;DHT22;30457;53.590;9.922;2022-09-09T01:30:10;19.70;59.70
44729;DHT22;30457;53.590;9.922;2022-09-09T01:34:38;19.60;59.30
44729;DHT22;30457;53.590;9.922;2022-09-09T01:39:05;19.60;59.10
44729;DHT22;30457;53.590;9.922;2022-09-09T01:43:32;19.60;59.10
44729;DHT22;30457;53.590;9.922;2022-09-09T01:48:00;19.60;59.20
44729;DHT22;30457;53.590;9.922;2022-09-09T01:52:41;19.60;59.40
44729;DHT22;30457;53.590;9.922;2022-09-09T01:58:32;19.50;59.30
44729;DHT22;30457;53.590;9.922;2022-09-09T02:02:32;19.50;59.60
44729;DHT22;30457;53.590;9.922;2022-09-09T02:07:42;19.50;59.50
44729;DHT22;30457;53.590;9.922;2022-09-09T02:12:24;19.50;59.70
44729;DHT22;30457;53.590;9.922;2022-09-09T02:16:59;19.40;59.50
44729;DHT22;30457;53.590;9.922;2022-09-09T02:21:40;19.40;59.50
44729;DHT22;30457;53.590;9.922;2022-09-09T02:26:08;19.40;59.40
44729;DHT22;30457;53.590;9.922;2022-09-09T02:30:37;19.40;59.50
44729;DHT22;30457;53.590;9.922;2022-09-09T02:35:12;19.40;59.40
44729;DHT22;30457;53.590;9.922;2022-09-09T02:39:40;19.30;59.40
44729;DHT22;30457;53.590;9.922;2022-09-09T02:44:19;19.30;59.20
44729;DHT22;30457;53.590;9.922;2022-09-09T02:48:59;19.30;59.40
44729;DHT22;30457;53.590;9.922;2022-09-09T02:53:48;19.30;59.50
44729;DHT22;30457;53.590;9.922;2022-09-09T02:58:18;19.20;59.60
44729;DHT22;30457;53.590;9.922;2022-09-09T03:02:53;19.20;59.30
44729;DHT22;30457;53.590;9.922;2022-09-09T03:07:22;19.20;59.10
44729;DHT22;30457;53.590;9.922;2022-09-09T03:11:50;19.20;59.00
44729;DHT22;30457;53.590;9.922;2022-09-09T03:16:16;19.10;58.90
44729;DHT22;30457;53.590;9.922;2022-09-09T03:20:46;19.00;58.60
44729;DHT22;30457;53.590;9.922;2022-09-09T03:25:16;19.00;58.60
44729;DHT22;30457;53.590;9.922;2022-09-09T03:29:43;19.00;58.60
44729;DHT22;30457;53.590;9.922;2022-09-09T03:34:13;18.90;58.50
44729;DHT22;30457;53.590;9.922;2022-09-09T03:38:39;18.90;58.50
44729;DHT22;30457;53.590;9.922;2022-09-09T03:43:06;18.90;58.50
44729;DHT22;30457;53.590;9.922;2022-09-09T03:47:33;18.80;58.50
44729;DHT22;30457;53.590;9.922;2022-09-09T03:52:04;18.80;58.50
44729;DHT22;30457;53.590;9.922;2022-09-09T03:56:31;18.70;58.30
44729;DHT22;30457;53.590;9.922;2022-09-09T04:01:02;18.70;58.20
44729;DHT22;30457;53.590;9.922;2022-09-09T04:05:29;18.70;58.30
44729;DHT22;30457;53.590;9.922;2022-09-09T04:09:54;18.60;58.60
44729;DHT22;30457;53.590;9.922;2022-09-09T04:14:21;18.60;58.50
44729;DHT22;30457;53.590;9.922;2022-09-09T04:18:46;18.50;58.70
44729;DHT22;30457;53.590;9.922;2022-09-09T04:23:15;18.50;58.70
44729;DHT22;30457;53.590;9.922;2022-09-09T04:27:41;18.40;58.50
44729;DHT22;30457;53.590;9.922;2022-09-09T04:32:08;18.40;58.60
44729;DHT22;30457;53.590;9.922;2022-09-09T04:36:34;18.40;58.60
44729;DHT22;30457;53.590;9.922;2022-09-09T04:41:03;18.40;58.60
44729;DHT22;30457;53.590;9.922;2022-09-09T04:45:28;18.30;58.60
44729;DHT22;30457;53.590;9.922;2022-09-09T04:49:54;18.30;58.70
44729;DHT22;30457;53.590;9.922;2022-09-09T04:54:20;18.30;58.90
44729;DHT22;30457;53.590;9.922;2022-09-09T04:58:46;18.30;59.00
44729;DHT22;30457;53.590;9.922;2022-09-09T05:03:13;18.30;59.30
44729;DHT22;30457;53.590;9.922;2022-09-09T05:07:39;18.30;59.50
44729;DHT22;30457;53.590;9.922;2022-09-09T05:12:05;18.30;59.60
44729;DHT22;30457;53.590;9.922;2022-09-09T05:16:34;18.40;59.70
44729;DHT22;30457;53.590;9.922;2022-09-09T05:21:00;18.30;59.60
44729;DHT22;30457;53.590;9.922;2022-09-09T05:25:26;18.40;59.50
44729;DHT22;30457;53.590;9.922;2022-09-09T05:29:54;18.40;59.50
44729;DHT22;30457;53.590;9.922;2022-09-09T05:34:19;18.30;59.50
44729;DHT22;30457;53.590;9.922;2022-09-09T05:38:47;18.40;59.50
44729;DHT22;30457;53.590;9.922;2022-09-09T05:43:13;18.40;59.60
44729;DHT22;30457;53.590;9.922;2022-09-09T05:47:39;18.40;59.60
44729;DHT22;30457;53.590;9.922;2022-09-09T05:52:09;18.50;59.70
44729;DHT22;30457;53.590;9.922;2022-09-09T05:56:35;18.50;60.00
44729;DHT22;30457;53.590;9.922;2022-09-09T06:01:08;18.60;61.30
44729;DHT22;30457;53.590;9.922;2022-09-09T06:05:36;18.60;61.20
44729;DHT22;30457;53.590;9.922;2022-09-09T06:10:05;18.70;61.40
44729;DHT22;30457;53.590;9.922;2022-09-09T06:14:31;18.80;61.60
44729;DHT22;30457;53.590;9.922;2022-09-09T06:18:59;18.90;61.60
44729;DHT22;30457;53.590;9.922;2022-09-09T06:23:28;19.00;61.50
44729;DHT22;30457;53.590;9.922;2022-09-09T06:27:53;19.10;61.60
44729;DHT22;30457;53.590;9.922;2022-09-09T06:32:19;19.10;61.50
44729;DHT22;30457;53.590;9.922;2022-09-09T06:36:45;19.20;61.20
44729;DHT22;30457;53.590;9.922;2022-09-09T06:41:16;19.20;61.30
44729;DHT22;30457;53.590;9.922;2022-09-09T06:45:53;19.20;61.00
44729;DHT22;30457;53.590;9.922;2022-09-09T06:50:18;19.30;61.50
44729;DHT22;30457;53.590;9.922;2022-09-09T06:54:47;19.30;61.30
44729;DHT22;30457;53.590;9.922;2022-09-09T06:59:15;19.40;61.70
44729;DHT22;30457;53.590;9.922;2022-09-09T07:03:44;19.50;62.10
44729;DHT22;30457;53.590;9.922;2022-09-09T07:08:10;19.60;61.70
44729;DHT22;30457;53.590;9.922;2022-09-09T07:12:36;19.70;61.80
44729;DHT22;30457;53.590;9.922;2022-09-09T07:17:03;19.80;62.20
44729;DHT22;30457;53.590;9.922;2022-09-09T07:21:34;20.00;62.00
44729;DHT22;30457;53.590;9.922;2022-09-09T07:26:00;20.10;61.80
44729;DHT22;30457;53.590;9.922;2022-09-09T07:30:26;20.30;61.20
44729;DHT22;30457;53.590;9.922;2022-09-09T07:34:53;20.30;60.60
44729;DHT22;30457;53.590;9.922;2022-09-09T07:39:20;20.40;60.50
44729;DHT22;30457;53.590;9.922;2022-09-09T07:43:51;20.60;61.10
44729;DHT22;30457;53.590;9.922;2022-09-09T07:48:19;20.60;61.10
44729;DHT22;30457;53.590;9.922;2022-09-09T07:52:45;20.80;60.30
44729;DHT22;30457;53.590;9.922;2022-09-09T07:57:10;20.90;59.70
44729;DHT22;30457;53.590;9.922;2022-09-09T08:01:40;20.90;59.80
44729;DHT22;30457;53.590;9.922;2022-09-09T08:06:08;21.00;59.60
44729;DHT22;30457;53.590;9.922;2022-09-09T08:10:34;21.00;59.50
44729;DHT22;30457;53.590;9.922;2022-09-09T08:15:00;21.10;60.50
44729;DHT22;30457;53.590;9.922;2022-09-09T08:19:29;21.20;60.90
44729;DHT22;30457;53.590;9.922;2022-09-09T08:23:58;21.40;59.90
44729;DHT22;30457;53.590;9.922;2022-09-09T08:28:24;21.50;59.00
44729;DHT22;30457;53.590;9.922;2022-09-09T08:32:50;21.60;59.20
44729;DHT22;30457;53.590;9.922;2022-09-09T08:37:17;21.70;59.10
44729;DHT22;30457;53.590;9.922;2022-09-09T08:51:38;22.10;58.20
44729;DHT22;30457;53.590;9.922;2022-09-09T08:56:11;22.10;58.20
44729;DHT22;30457;53.590;9.922;2022-09-09T09:05:52;22.30;57.00
44729;DHT22;30457;53.590;9.922;2022-09-09T09:10:47;22.30;57.30
44729;DHT22;30457;53.590;9.922;2022-09-09T09:15:21;22.50;57.70
44729;DHT22;30457;53.590;9.922;2022-09-09T09:19:50;22.70;58.20
44729;DHT22;30457;53.590;9.922;2022-09-09T09:29:14;23.20;55.60
44729;DHT22;30457;53.590;9.922;2022-09-09T09:38:17;23.60;55.70
44729;DHT22;30457;53.590;9.922;2022-09-09T09:43:01;23.60;56.00
44729;DHT22;30457;53.590;9.922;2022-09-09T09:47:28;23.70;55.00
44729;DHT22;30457;53.590;9.922;2022-09-09T09:52:03;23.70;54.70
44729;DHT22;30457;53.590;9.922;2022-09-09T09:56:30;23.80;54.90
44729;DHT22;30457;53.590;9.922;2022-09-09T10:00:56;23.90;54.30
44729;DHT22;30457;53.590;9.922;2022-09-09T10:05:28;24.10;54.40
44729;DHT22;30457;53.590;9.922;2022-09-09T10:09:59;24.30;54.20
44729;DHT22;30457;53.590;9.922;2022-09-09T10:14:43;24.50;53.90
44729;DHT22;30457;53.590;9.922;2022-09-09T10:19:15;24.70;53.80
44729;DHT22;30457;53.590;9.922;2022-09-09T10:24:11;24.90;53.10
44729;DHT22;30457;53.590;9.922;2022-09-09T10:33:53;25.10;51.80
44729;DHT22;30457;53.590;9.922;2022-09-09T10:38:42;25.20;51.80
44729;DHT22;30457;53.590;9.922;2022-09-09T10:48:08;25.30;51.00
44729;DHT22;30457;53.590;9.922;2022-09-09T10:57:46;25.50;49.90
44729;DHT22;30457;53.590;9.922;2022-09-09T11:02:27;25.50;50.80
44729;DHT22;30457;53.590;9.922;2022-09-09T11:06:55;25.50;50.20
44729;DHT22;30457;53.590;9.922;2022-09-09T11:11:36;25.50;50.30
44729;DHT22;30457;53.590;9.922;2022-09-09T11:16:16;25.60;49.80
44729;DHT22;30457;53.590;9.922;2022-09-09T11:20:47;25.60;50.00
44729;DHT22;30457;53.590;9.922;2022-09-09T11:25:27;25.70;49.90
44729;DHT22;30457;53.590;9.922;2022-09-09T11:30:02;25.70;49.00
44729;DHT22;30457;53.590;9.922;2022-09-09T11:34:56;25.80;50.20
44729;DHT22;30457;53.590;9.922;2022-09-09T11:44:19;26.00;49.10
44729;DHT22;30457;53.590;9.922;2022-09-09T11:49:03;26.10;49.70
44729;DHT22;30457;53.590;9.922;2022-09-09T11:53:28;26.20;48.30
44729;DHT22;30457;53.590;9.922;2022-09-09T11:58:02;26.40;48.80
44729;DHT22;30457;53.590;9.922;2022-09-09T12:02:29;26.60;48.00
44729;DHT22;30457;53.590;9.922;2022-09-09T12:11:30;26.80;47.60
44729;DHT22;30457;53.590;9.922;2022-09-09T12:15:58;26.80;47.30
44729;DHT22;30457;53.590;9.922;2022-09-09T12:25:21;26.90;47.10
44729;DHT22;30457;53.590;9.922;2022-09-09T12:34:52;26.90;47.30
44729;DHT22;30457;53.590;9.922;2022-09-09T12:39:24;26.80;46.70
44729;DHT22;30457;53.590;9.922;2022-09-09T12:44:08;26.60;47.90
44729;DHT22;30457;53.590;9.922;2022-09-09T12:48:39;26.50;46.50
44729;DHT22;30457;53.590;9.922;2022-09-09T12:53:11;26.40;47.00
44729;DHT22;30457;53.590;9.922;2022-09-09T12:57:40;26.30;46.80
44729;DHT22;30457;53.590;9.922;2022-09-09T13:02:27;26.30;47.30
44729;DHT22;30457;53.590;9.922;2022-09-09T13:06:53;26.20;47.10
44729;DHT22;30457;53.590;9.922;2022-09-09T13:11:41;26.10;47.50
44729;DHT22;30457;53.590;9.922;2022-09-09T13:16:27;25.90;47.10
44729;DHT22;30457;53.590;9.922;2022-09-09T13:20:57;25.80;47.40
44729;DHT22;30457;53.590;9.922;2022-09-09T13:25:29;25.60;47.50
44729;DHT22;30457;53.590;9.922;2022-09-09T13:29:55;25.50;48.10
44729;DHT22;30457;53.590;9.922;2022-09-09T13:34:33;25.30;47.80
44729;DHT22;30457;53.590;9.922;2022-09-09T13:39:01;25.10;47.60
44729;DHT22;30457;53.590;9.922;2022-09-09T13:43:27;24.90;47.80
44729;DHT22;30457;53.590;9.922;2022-09-09T13:47:57;24.70;48.20
44729;DHT22;30457;53.590;9.922;2022-09-09T13:52:33;24.50;48.90
44729;DHT22;30457;53.590;9.922;2022-09-09T13:56:58;24.30;49.30
44729;DHT22;30457;53.590;9.922;2022-09-09T14:01:24;24.10;49.60
44729;DHT22;30457;53.590;9.922;2022-09-09T14:05:50;24.00;50.00
44729;DHT22;30457;53.590;9.922;2022-09-09T14:10:16;23.90;50.20
44729;DHT22;30457;53.590;9.922;2022-09-09T14:14:42;23.80;50.60
44729;DHT22;30457;53.590;9.922;2022-09-09T14:19:08;23.70;51.00
44729;DHT22;30457;53.590;9.922;2022-09-09T14:23:34;23.70;51.50
44729;DHT22;30457;53.590;9.922;2022-09-09T14:28:00;23.70;51.80
44729;DHT22;30457;53.590;9.922;2022-09-09T14:32:27;23.60;52.10
44729;DHT22;30457;53.590;9.922;2022-09-09T14:36:53;23.60;52.30
44729;DHT22;30457;53.590;9.922;2022-09-09T14:41:19;23.60;52.30
44729;DHT22;30457;53.590;9.922;2022-09-09T14:45:47;23.50;51.90
44729;DHT22;30457;53.590;9.922;2022-09-09T14:50:13;23.50;52.00
44729;DHT22;30457;53.590;9.922;2022-09-09T14:54:39;23.40;51.90
44729;DHT22;30457;53.590;9.922;2022-09-09T14:59:04;23.30;52.10
44729;DHT22;30457;53.590;9.922;2022-09-09T15:03:30;23.30;52.40
44729;DHT22;30457;53.590;9.922;2022-09-09T15:07:55;23.20;52.50
44729;DHT22;30457;53.590;9.922;2022-09-09T15:12:22;23.20;52.70
44729;DHT22;30457;53.590;9.922;2022-09-09T15:16:49;23.20;52.40
44729;DHT22;30457;53.590;9.922;2022-09-09T15:21:17;23.20;52.40
44729;DHT22;30457;53.590;9.922;2022-09-09T15:25:52;23.10;52.20
44729;DHT22;30457;53.590;9.922;2022-09-09T15:30:18;23.10;52.60
44729;DHT22;30457;53.590;9.922;2022-09-09T15:34:44;23.00;52.30
44729;DHT22;30457;53.590;9.922;2022-09-09T15:39:11;22.90;52.60
44729;DHT22;30457;53.590;9.922;2022-09-09T15:43:38;23.00;52.80
44729;DHT22;30457;53.590;9.922;2022-09-09T15:48:04;23.00;53.00
44729;DHT22;30457;53.590;9.922;2022-09-09T15:52:30;23.00;53.00
44729;DHT22;30457;53.590;9.922;2022-09-09T15:57:02;23.00;53.30
44729;DHT22;30457;53.590;9.922;2022-09-09T16:01:29;23.00;53.30
44729;DHT22;30457;53.590;9.922;2022-09-09T16:05:55;23.00;53.60
44729;DHT22;30457;53.590;9.922;2022-09-09T16:10:21;23.10;53.60
44729;DHT22;30457;53.590;9.922;2022-09-09T16:14:47;23.20;53.70
44729;DHT22;30457;53.590;9.922;2022-09-09T16:19:12;23.30;53.80
44729;DHT22;30457;53.590;9.922;2022-09-09T16:23:38;23.40;52.90
44729;DHT22;30457;53.590;9.922;2022-09-09T16:28:04;23.60;52.50
44729;DHT22;30457;53.590;9.922;2022-09-09T16:32:29;23.60;52.10
44729;DHT22;30457;53.590;9.922;2022-09-09T16:41:32;23.50;51.60
44729;DHT22;30457;53.590;9.922;2022-09-09T16:45:58;23.50;51.90
44729;DHT22;30457;53.590;9.922;2022-09-09T16:50:26;23.40;51.90
44729;DHT22;30457;53.590;9.922;2022-09-09T16:54:51;23.40;52.00
44729;DHT22;30457;53.590;9.922;2022-09-09T16:59:19;23.30;51.90
44729;DHT22;30457;53.590;9.922;2022-09-09T17:03:44;23.20;52.20
44729;DHT22;30457;53.590;9.922;2022-09-09T17:08:10;23.20;51.80
44729;DHT22;30457;53.590;9.922;2022-09-09T17:12:36;23.00;52.00
44729;DHT22;30457;53.590;9.922;2022-09-09T17:17:01;23.00;52.00
44729;DHT22;30457;53.590;9.922;2022-09-09T17:21:28;22.90;51.90
44729;DHT22;30457;53.590;9.922;2022-09-09T17:25:58;22.80;52.20
44729;DHT22;30457;53.590;9.922;2022-09-09T17:30:24;22.70;52.30
44729;DHT22;30457;53.590;9.922;2022-09-09T17:34:50;22.60;52.10
44729;DHT22;30457;53.590;9.922;2022-09-09T17:39:16;22.50;52.10
44729;DHT22;30457;53.590;9.922;2022-09-09T17:43:41;22.50;52.20
44729;DHT22;30457;53.590;9.922;2022-09-09T17:48:07;22.40;52.40
44729;DHT22;30457;53.590;9.922;2022-09-09T17:52:33;22.30;52.40
44729;DHT22;30457;53.590;9.922;2022-09-09T17:57:00;22.20;52.50
44729;DHT22;30457;53.590;9.922;2022-09-09T18:01:28;22.10;52.50
44729;DHT22;30457;53.590;9.922;2022-09-09T18:06:00;22.00;52.50
44729;DHT22;30457;53.590;9.922;2022-09-09T18:10:27;21.90;52.90
44729;DHT22;30457;53.590;9.922;2022-09-09T18:14:52;21.80;52.70
44729;DHT22;30457;53.590;9.922;2022-09-09T18:19:21;21.70;52.90
44729;DHT22;30457;53.590;9.922;2022-09-09T18:23:47;21.60;53.10
44729;DHT22;30457;53.590;9.922;2022-09-09T18:28:16;21.60;53.20
44729;DHT22;30457;53.590;9.922;2022-09-09T18:32:42;21.50;53.40
44729;DHT22;30457;53.590;9.922;2022-09-09T18:37:07;21.40;53.50
44729;DHT22;30457;53.590;9.922;2022-09-09T18:41:37;21.40;53.80
44729;DHT22;30457;53.590;9.922;2022-09-09T18:46:03;21.40;54.00
44729;DHT22;30457;53.590;9.922;2022-09-09T18:50:29;21.30;54.10
44729;DHT22;30457;53.590;9.922;2022-09-09T18:54:55;21.30;54.50
44729;DHT22;30457;53.590;9.922;2022-09-09T18:59:22;21.30;54.50
44729;DHT22;30457;53.590;9.922;2022-09-09T19:03:48;21.30;54.80
44729;DHT22;30457;53.590;9.922;2022-09-09T19:08:13;21.30;54.80
44729;DHT22;30457;53.590;9.922;2022-09-09T19:12:39;21.30;55.00
44729;DHT22;30457;53.590;9.922;2022-09-09T19:17:06;21.30;55.20
44729;DHT22;30457;53.590;9.922;2022-09-09T19:21:36;21.30;55.20
44729;DHT22;30457;53.590;9.922;2022-09-09T19:26:03;21.30;55.50
44729;DHT22;30457;53.590;9.922;2022-09-09T19:30:33;21.20;55.30
44729;DHT22;30457;53.590;9.922;2022-09-09T19:34:59;21.20;55.40
44729;DHT22;30457;53.590;9.922;2022-09-09T19:39:26;21.20;55.40
44729;DHT22;30457;53.590;9.922;2022-09-09T19:43:55;21.20;55.30
44729;DHT22;30457;53.590;9.922;2022-09-09T19:48:22;21.10;55.20
44729;DHT22;30457;53.590;9.922;2022-09-09T19:52:50;21.10;55.10
44729;DHT22;30457;53.590;9.922;2022-09-09T19:57:17;21.10;55.10
44729;DHT22;30457;53.590;9.922;2022-09-09T20:01:44;21.00;55.10
44729;DHT22;30457;53.590;9.922;2022-09-09T20:06:12;21.00;55.30
44729;DHT22;30457;53.590;9.922;2022-09-09T20:10:38;21.00;55.30
44729;DHT22;30457;53.590;9.922;2022-09-09T20:15:04;20.90;55.50
44729;DHT22;30457;53.590;9.922;2022-09-09T20:19:29;20.90;55.50
44729;DHT22;30457;53.590;9.922;2022-09-09T20:23:55;20.80;55.40
44729;DHT22;30457;53.590;9.922;2022-09-09T20:28:21;20.80;55.40
44729;DHT22;30457;53.590;9.922;2022-09-09T20:32:47;20.80;55.80
44729;DHT22;30457;53.590;9.922;2022-09-09T20:37:12;20.80;55.90
44729;DHT22;30457;53.590;9.922;2022-09-09T20:41:38;20.70;55.70
44729;DHT22;30457;53.590;9.922;2022-09-09T20:46:04;20.70;55.80
44729;DHT22;30457;53.590;9.922;2022-09-09T20:50:30;20.70;56.00
44729;DHT22;30457;53.590;9.922;2022-09-09T20:54:58;20.70;56.00
44729;DHT22;30457;53.590;9.922;2022-09-09T20:59:26;20.60;55.90
44729;DHT22;30457;53.590;9.922;2022-09-09T21:03:52;20.60;56.00
44729;DHT22;30457;53.590;9.922;2022-09-09T21:08:17;20.60;56.00
44729;DHT22;30457;53.590;9.922;2022-09-09T21:12:43;20.60;56.10
44729;DHT22;30457;53.590;9.922;2022-09-09T21:17:09;20.50;56.00
44729;DHT22;30457;53.590;9.922;2022-09-09T21:21:35;20.50;56.20
44729;DHT22;30457;53.590;9.922;2022-09-09T21:26:01;20.50;56.10
44729;DHT22;30457;53.590;9.922;2022-09-09T21:30:27;20.40;56.50
44729;DHT22;30457;53.590;9.922;2022-09-09T21:34:53;20.40;56.70
44729;DHT22;30457;53.590;9.922;2022-09-09T21:39:21;20.40;56.90
44729;DHT22;30457;53.590;9.922;2022-09-09T21:43:51;20.40;57.10
44729;DHT22;30457;53.590;9.922;2022-09-09T21:48:17;20.40;57.40
44729;DHT22;30457;53.590;9.922;2022-09-09T21:52:45;20.40;57.20
44729;DHT22;30457;53.590;9.922;2022-09-09T21:57:11;20.40;57.30
44729;DHT22;30457;53.590;9.922;2022-09-09T22:01:38;20.40;57.50
44729;DHT22;30457;53.590;9.922;2022-09-09T22:06:07;20.40;57.60
44729;DHT22;30457;53.590;9.922;2022-09-09T22:10:35;20.40;57.60
44729;DHT22;30457;53.590;9.922;2022-09-09T22:15:02;20.40;57.60
44729;DHT22;30457;53.590;9.922;2022-09-09T22:19:28;20.40;57.40
44729;DHT22;30457;53.590;9.922;2022-09-09T22:23:57;20.40;57.30
44729;DHT22;30457;53.590;9.922;2022-09-09T22:28:22;20.40;57.30
44729;DHT22;30457;53.590;9.922;2022-09-09T22:32:48;20.40;57.20
44729;DHT22;30457;53.590;9.922;2022-09-09T22:37:14;20.40;57.10
44729;DHT22;30457;53.590;9.922;2022-09-09T22:41:40;20.40;57.00
44729;DHT22;30457;53.590;9.922;2022-09-09T22:46:06;20.30;57.00
44729;DHT22;30457;53.590;9.922;2022-09-09T22:50:35;20.30;57.00
44729;DHT22;30457;53.590;9.922;2022-09-09T22:55:01;20.20;57.10
44729;DHT22;30457;53.590;9.922;2022-09-09T22:59:27;20.20;57.00
44729;DHT22;30457;53.590;9.922;2022-09-09T23:03:55;20.20;57.10
44729;DHT22;30457;53.590;9.922;2022-09-09T23:08:28;20.10;57.10
44729;DHT22;30457;53.590;9.922;2022-09-09T23:12:57;20.10;57.20
44729;DHT22;30457;53.590;9.922;2022-09-09T23:17:23;20.10;57.30
44729;DHT22;30457;53.590;9.922;2022-09-09T23:21:49;20.10;57.50
44729;DHT22;30457;53.590;9.922;2022-09-09T23:26:15;20.00;57.60
44729;DHT22;30457;53.590;9.922;2022-09-09T23:30:45;20.00;57.80
44729;DHT22;30457;53.590;9.922;2022-09-09T23:35:11;20.00;57.90
44729;DHT22;30457;53.590;9.922;2022-09-09T23:39:37;20.00;57.80
44729;DHT22;30457;53.590;9.922;2022-09-09T23:44:04;20.10;58.00
44729;DHT22;30457;53.590;9.922;2022-09-09T23:48:30;20.10;57.90
44729;DHT22;30457;53.590;9.922;2022-09-09T23:52:56;20.10;57.90
44729;DHT22;30457;53.590;9.922;2022-09-09T23:57:23;20.10;57.80
